Terminal Aerodrome Forecast
Issued by NWS

Home | Current Version | Previous Version | Text Only | Print | Product List | Glossary On
Versions: 1 2 3 4 5 6 7 8 9 10 11 12 13 14
000
FTUS43 KAPX 011725
TAFAPN
TAF
KAPN 011725Z 0118/0218 05009KT P6SM -RA SCT029 OVC040
     FM012100 05009KT P6SM OVC050
     FM020100 06005KT P6SM OVC070
     FM020600 36004KT P6SM BKN100
     FM020900 VRB03KT P6SM SCT200
     FM021600 01007KT P6SM SCT200=

USA.gov is the U.S. government's official web portal to all federal, state and local government web resources and services.